sensor_id;sensor_type;location;lat;lon;timestamp;temperature;humidity
68719;DHT22;55696;52.138;5.444;2023-07-16T00:02:03;21.40;48.60
68719;DHT22;55696;52.138;5.444;2023-07-16T00:04:31;21.40;48.40
68719;DHT22;55696;52.138;5.444;2023-07-16T00:07:02;21.40;48.20
68719;DHT22;55696;52.138;5.444;2023-07-16T00:09:29;21.50;48.20
68719;DHT22;55696;52.138;5.444;2023-07-16T00:11:56;21.30;48.00
68719;DHT22;55696;52.138;5.444;2023-07-16T00:14:23;21.50;48.20
68719;DHT22;55696;52.138;5.444;2023-07-16T00:16:50;21.50;48.10
68719;DHT22;55696;52.138;5.444;2023-07-16T00:19:17;21.50;47.80
68719;DHT22;55696;52.138;5.444;2023-07-16T00:21:44;21.50;47.70
68719;DHT22;55696;52.138;5.444;2023-07-16T00:24:10;21.40;47.60
68719;DHT22;55696;52.138;5.444;2023-07-16T00:26:37;21.50;47.90
68719;DHT22;55696;52.138;5.444;2023-07-16T00:29:04;21.40;47.80
68719;DHT22;55696;52.138;5.444;2023-07-16T00:31:31;21.40;47.70
68719;DHT22;55696;52.138;5.444;2023-07-16T00:33:58;21.40;47.60
68719;DHT22;55696;52.138;5.444;2023-07-16T00:36:25;21.40;47.60
68719;DHT22;55696;52.138;5.444;2023-07-16T00:38:52;21.40;47.60
68719;DHT22;55696;52.138;5.444;2023-07-16T00:41:19;21.40;47.60
68719;DHT22;55696;52.138;5.444;2023-07-16T00:43:46;21.40;47.50
68719;DHT22;55696;52.138;5.444;2023-07-16T00:46:12;21.40;47.60
68719;DHT22;55696;52.138;5.444;2023-07-16T00:48:40;21.40;47.80
68719;DHT22;55696;52.138;5.444;2023-07-16T00:51:08;21.20;47.80
68719;DHT22;55696;52.138;5.444;2023-07-16T00:53:35;21.80;48.10
68719;DHT22;55696;52.138;5.444;2023-07-16T00:56:02;21.90;48.20
68719;DHT22;55696;52.138;5.444;2023-07-16T00:58:29;21.30;48.00
68719;DHT22;55696;52.138;5.444;2023-07-16T01:00:56;21.20;48.10
68719;DHT22;55696;52.138;5.444;2023-07-16T01:03:23;21.60;48.40
68719;DHT22;55696;52.138;5.444;2023-07-16T01:08:41;21.10;48.20
68719;DHT22;55696;52.138;5.444;2023-07-16T01:11:09;21.10;48.40
68719;DHT22;55696;52.138;5.444;2023-07-16T01:13:36;20.90;48.30
68719;DHT22;55696;52.138;5.444;2023-07-16T01:16:03;21.10;48.70
68719;DHT22;55696;52.138;5.444;2023-07-16T01:18:30;21.10;48.60
68719;DHT22;55696;52.138;5.444;2023-07-16T01:20:57;21.10;48.60
68719;DHT22;55696;52.138;5.444;2023-07-16T01:23:56;21.20;48.70
68719;DHT22;55696;52.138;5.444;2023-07-16T01:29:37;21.10;49.00
68719;DHT22;55696;52.138;5.444;2023-07-16T01:32:06;21.10;48.90
68719;DHT22;55696;52.138;5.444;2023-07-16T01:34:36;21.00;48.60
68719;DHT22;55696;52.138;5.444;2023-07-16T01:37:04;21.00;48.80
68719;DHT22;55696;52.138;5.444;2023-07-16T01:39:32;21.00;49.00
68719;DHT22;55696;52.138;5.444;2023-07-16T01:42:02;20.80;48.90
68719;DHT22;55696;52.138;5.444;2023-07-16T01:44:29;20.90;49.00
68719;DHT22;55696;52.138;5.444;2023-07-16T01:49:32;21.00;49.30
68719;DHT22;55696;52.138;5.444;2023-07-16T01:52:01;20.90;49.10
68719;DHT22;55696;52.138;5.444;2023-07-16T01:54:28;20.90;49.40
68719;DHT22;55696;52.138;5.444;2023-07-16T01:56:57;20.90;49.40
68719;DHT22;55696;52.138;5.444;2023-07-16T01:59:23;21.10;49.50
68719;DHT22;55696;52.138;5.444;2023-07-16T02:01:54;20.90;49.40
68719;DHT22;55696;52.138;5.444;2023-07-16T02:04:22;21.00;49.70
68719;DHT22;55696;52.138;5.444;2023-07-16T02:06:49;20.90;49.70
68719;DHT22;55696;52.138;5.444;2023-07-16T02:09:19;20.90;49.70
68719;DHT22;55696;52.138;5.444;2023-07-16T02:11:47;20.80;49.90
68719;DHT22;55696;52.138;5.444;2023-07-16T02:14:13;20.70;49.80
68719;DHT22;55696;52.138;5.444;2023-07-16T02:16:41;20.80;49.90
68719;DHT22;55696;52.138;5.444;2023-07-16T02:19:08;20.80;50.00
68719;DHT22;55696;52.138;5.444;2023-07-16T02:21:35;20.80;50.10
68719;DHT22;55696;52.138;5.444;2023-07-16T02:24:02;20.80;50.10
68719;DHT22;55696;52.138;5.444;2023-07-16T02:26:29;20.80;50.30
68719;DHT22;55696;52.138;5.444;2023-07-16T02:28:55;20.90;50.40
68719;DHT22;55696;52.138;5.444;2023-07-16T02:31:22;20.80;50.50
68719;DHT22;55696;52.138;5.444;2023-07-16T02:33:49;20.80;50.60
68719;DHT22;55696;52.138;5.444;2023-07-16T02:36:16;20.70;50.70
68719;DHT22;55696;52.138;5.444;2023-07-16T02:38:43;20.60;50.70
68719;DHT22;55696;52.138;5.444;2023-07-16T02:41:10;20.70;51.00
68719;DHT22;55696;52.138;5.444;2023-07-16T02:43:37;20.60;51.10
68719;DHT22;55696;52.138;5.444;2023-07-16T02:46:03;20.70;51.10
68719;DHT22;55696;52.138;5.444;2023-07-16T02:48:30;20.70;51.20
68719;DHT22;55696;52.138;5.444;2023-07-16T02:50:57;20.70;51.30
68719;DHT22;55696;52.138;5.444;2023-07-16T02:53:24;20.70;51.20
68719;DHT22;55696;52.138;5.444;2023-07-16T02:55:51;20.60;51.20
68719;DHT22;55696;52.138;5.444;2023-07-16T02:58:17;20.80;51.20
68719;DHT22;55696;52.138;5.444;2023-07-16T03:00:44;20.80;51.20
68719;DHT22;55696;52.138;5.444;2023-07-16T03:03:11;20.60;51.10
68719;DHT22;55696;52.138;5.444;2023-07-16T03:05:38;20.70;51.30
68719;DHT22;55696;52.138;5.444;2023-07-16T03:08:05;20.70;51.40
68719;DHT22;55696;52.138;5.444;2023-07-16T03:10:31;20.70;51.50
68719;DHT22;55696;52.138;5.444;2023-07-16T03:12:58;20.70;51.50
68719;DHT22;55696;52.138;5.444;2023-07-16T03:15:25;20.60;51.50
68719;DHT22;55696;52.138;5.444;2023-07-16T03:17:52;20.70;51.70
68719;DHT22;55696;52.138;5.444;2023-07-16T03:20:19;20.70;51.70
68719;DHT22;55696;52.138;5.444;2023-07-16T03:22:46;20.60;51.80
68719;DHT22;55696;52.138;5.444;2023-07-16T03:25:13;20.60;51.90
68719;DHT22;55696;52.138;5.444;2023-07-16T03:27:40;20.60;51.90
68719;DHT22;55696;52.138;5.444;2023-07-16T03:30:08;20.60;51.90
68719;DHT22;55696;52.138;5.444;2023-07-16T03:32:34;20.60;52.00
68719;DHT22;55696;52.138;5.444;2023-07-16T03:35:17;20.60;52.10
68719;DHT22;55696;52.138;5.444;2023-07-16T03:37:44;20.50;52.10
68719;DHT22;55696;52.138;5.444;2023-07-16T03:40:15;20.50;52.10
68719;DHT22;55696;52.138;5.444;2023-07-16T03:42:44;20.50;52.30
68719;DHT22;55696;52.138;5.444;2023-07-16T03:45:11;20.50;52.20
68719;DHT22;55696;52.138;5.444;2023-07-16T03:47:39;20.60;52.20
68719;DHT22;55696;52.138;5.444;2023-07-16T03:50:07;20.30;52.20
68719;DHT22;55696;52.138;5.444;2023-07-16T03:52:34;20.40;52.30
68719;DHT22;55696;52.138;5.444;2023-07-16T03:55:00;20.50;52.50
68719;DHT22;55696;52.138;5.444;2023-07-16T03:57:28;20.50;52.50
68719;DHT22;55696;52.138;5.444;2023-07-16T03:59:56;20.30;52.40
68719;DHT22;55696;52.138;5.444;2023-07-16T04:02:24;20.50;52.40
68719;DHT22;55696;52.138;5.444;2023-07-16T04:04:51;20.50;52.60
68719;DHT22;55696;52.138;5.444;2023-07-16T04:07:18;20.30;52.50
68719;DHT22;55696;52.138;5.444;2023-07-16T04:09:45;20.40;52.50
68719;DHT22;55696;52.138;5.444;2023-07-16T04:12:11;20.20;52.40
68719;DHT22;55696;52.138;5.444;2023-07-16T04:14:38;20.40;52.50
68719;DHT22;55696;52.138;5.444;2023-07-16T04:17:05;20.40;52.40
68719;DHT22;55696;52.138;5.444;2023-07-16T04:19:32;20.50;52.40
68719;DHT22;55696;52.138;5.444;2023-07-16T04:21:59;20.50;52.40
68719;DHT22;55696;52.138;5.444;2023-07-16T04:24:26;20.40;52.20
68719;DHT22;55696;52.138;5.444;2023-07-16T04:26:55;20.50;52.20
68719;DHT22;55696;52.138;5.444;2023-07-16T04:29:22;20.50;52.20
68719;DHT22;55696;52.138;5.444;2023-07-16T04:31:49;20.50;52.10
68719;DHT22;55696;52.138;5.444;2023-07-16T04:34:16;20.50;52.00
68719;DHT22;55696;52.138;5.444;2023-07-16T04:36:45;20.60;52.10
68719;DHT22;55696;52.138;5.444;2023-07-16T04:39:12;20.50;52.10
68719;DHT22;55696;52.138;5.444;2023-07-16T04:41:39;20.50;52.00
68719;DHT22;55696;52.138;5.444;2023-07-16T04:44:05;20.60;51.90
68719;DHT22;55696;52.138;5.444;2023-07-16T04:46:33;20.50;51.90
68719;DHT22;55696;52.138;5.444;2023-07-16T04:49:01;20.50;51.80
68719;DHT22;55696;52.138;5.444;2023-07-16T04:51:28;20.40;51.70
68719;DHT22;55696;52.138;5.444;2023-07-16T04:53:55;20.60;51.80
68719;DHT22;55696;52.138;5.444;2023-07-16T04:56:22;20.60;51.80
68719;DHT22;55696;52.138;5.444;2023-07-16T04:58:49;20.60;51.70
68719;DHT22;55696;52.138;5.444;2023-07-16T05:01:15;20.60;51.70
68719;DHT22;55696;52.138;5.444;2023-07-16T05:03:42;21.00;51.90
68719;DHT22;55696;52.138;5.444;2023-07-16T05:06:09;20.50;51.60
68719;DHT22;55696;52.138;5.444;2023-07-16T05:08:36;20.50;51.40
68719;DHT22;55696;52.138;5.444;2023-07-16T05:11:03;20.70;51.30
68719;DHT22;55696;52.138;5.444;2023-07-16T05:13:30;20.70;51.40
68719;DHT22;55696;52.138;5.444;2023-07-16T05:15:56;20.60;51.30
68719;DHT22;55696;52.138;5.444;2023-07-16T05:18:23;20.70;51.40
68719;DHT22;55696;52.138;5.444;2023-07-16T05:20:50;20.70;51.30
68719;DHT22;55696;52.138;5.444;2023-07-16T05:23:17;20.70;51.10
68719;DHT22;55696;52.138;5.444;2023-07-16T05:25:48;20.70;51.00
68719;DHT22;55696;52.138;5.444;2023-07-16T05:28:16;20.70;51.10
68719;DHT22;55696;52.138;5.444;2023-07-16T05:30:42;21.20;51.40
68719;DHT22;55696;52.138;5.444;2023-07-16T05:33:12;20.80;51.00
68719;DHT22;55696;52.138;5.444;2023-07-16T05:35:39;20.90;50.90
68719;DHT22;55696;52.138;5.444;2023-07-16T05:38:06;20.90;50.60
68719;DHT22;55696;52.138;5.444;2023-07-16T05:40:34;20.80;50.50
68719;DHT22;55696;52.138;5.444;2023-07-16T05:43:00;20.90;51.40
68719;DHT22;55696;52.138;5.444;2023-07-16T05:45:27;21.40;50.40
68719;DHT22;55696;52.138;5.444;2023-07-16T05:47:54;21.00;50.10
68719;DHT22;55696;52.138;5.444;2023-07-16T05:50:21;21.00;50.20
68719;DHT22;55696;52.138;5.444;2023-07-16T05:52:48;21.00;50.20
68719;DHT22;55696;52.138;5.444;2023-07-16T05:55:15;21.10;50.10
68719;DHT22;55696;52.138;5.444;2023-07-16T05:57:42;21.10;50.00
68719;DHT22;55696;52.138;5.444;2023-07-16T06:00:09;21.00;49.80
68719;DHT22;55696;52.138;5.444;2023-07-16T06:02:42;21.20;49.90
68719;DHT22;55696;52.138;5.444;2023-07-16T06:05:09;21.00;49.70
68719;DHT22;55696;52.138;5.444;2023-07-16T06:07:36;21.30;49.70
68719;DHT22;55696;52.138;5.444;2023-07-16T06:10:03;21.20;49.60
68719;DHT22;55696;52.138;5.444;2023-07-16T06:12:30;21.30;49.60
68719;DHT22;55696;52.138;5.444;2023-07-16T06:14:57;21.40;49.60
68719;DHT22;55696;52.138;5.444;2023-07-16T06:17:23;21.40;49.40
68719;DHT22;55696;52.138;5.444;2023-07-16T06:19:50;21.60;49.50
68719;DHT22;55696;52.138;5.444;2023-07-16T06:22:18;21.60;49.10
68719;DHT22;55696;52.138;5.444;2023-07-16T06:24:45;21.60;48.90
68719;DHT22;55696;52.138;5.444;2023-07-16T06:27:12;21.60;48.70
68719;DHT22;55696;52.138;5.444;2023-07-16T06:29:38;21.60;48.80
68719;DHT22;55696;52.138;5.444;2023-07-16T06:32:06;21.70;49.00
68719;DHT22;55696;52.138;5.444;2023-07-16T06:34:33;21.70;48.60
68719;DHT22;55696;52.138;5.444;2023-07-16T06:37:00;21.80;48.40
68719;DHT22;55696;52.138;5.444;2023-07-16T06:39:27;21.80;48.20
68719;DHT22;55696;52.138;5.444;2023-07-16T06:41:54;21.80;48.30
68719;DHT22;55696;52.138;5.444;2023-07-16T06:44:22;21.80;48.20
68719;DHT22;55696;52.138;5.444;2023-07-16T06:46:49;21.80;48.40
68719;DHT22;55696;52.138;5.444;2023-07-16T06:49:16;22.10;48.60
68719;DHT22;55696;52.138;5.444;2023-07-16T06:51:43;22.00;48.30
68719;DHT22;55696;52.138;5.444;2023-07-16T06:54:10;22.10;48.40
68719;DHT22;55696;52.138;5.444;2023-07-16T06:56:37;21.90;47.90
68719;DHT22;55696;52.138;5.444;2023-07-16T06:59:03;22.10;47.80
68719;DHT22;55696;52.138;5.444;2023-07-16T07:01:30;22.10;47.80
68719;DHT22;55696;52.138;5.444;2023-07-16T07:03:57;22.10;47.80
68719;DHT22;55696;52.138;5.444;2023-07-16T07:06:24;22.70;48.00
68719;DHT22;55696;52.138;5.444;2023-07-16T07:08:52;22.20;47.80
68719;DHT22;55696;52.138;5.444;2023-07-16T07:11:20;22.30;47.60
68719;DHT22;55696;52.138;5.444;2023-07-16T07:13:47;22.30;47.50
68719;DHT22;55696;52.138;5.444;2023-07-16T07:16:14;22.50;47.40
68719;DHT22;55696;52.138;5.444;2023-07-16T07:18:41;22.30;47.10
68719;DHT22;55696;52.138;5.444;2023-07-16T07:21:08;22.30;47.40
68719;DHT22;55696;52.138;5.444;2023-07-16T07:23:35;22.60;47.20
68719;DHT22;55696;52.138;5.444;2023-07-16T07:26:01;22.70;47.00
68719;DHT22;55696;52.138;5.444;2023-07-16T07:28:28;22.70;46.60
68719;DHT22;55696;52.138;5.444;2023-07-16T07:30:55;22.90;46.50
68719;DHT22;55696;52.138;5.444;2023-07-16T07:33:22;23.10;46.70
68719;DHT22;55696;52.138;5.444;2023-07-16T07:35:49;23.00;46.70
68719;DHT22;55696;52.138;5.444;2023-07-16T07:38:19;22.80;46.60
68719;DHT22;55696;52.138;5.444;2023-07-16T07:40:46;22.90;46.70
68719;DHT22;55696;52.138;5.444;2023-07-16T07:43:13;22.80;46.70
68719;DHT22;55696;52.138;5.444;2023-07-16T07:45:39;22.80;46.80
68719;DHT22;55696;52.138;5.444;2023-07-16T07:48:06;22.80;46.80
68719;DHT22;55696;52.138;5.444;2023-07-16T07:50:33;22.80;46.80
68719;DHT22;55696;52.138;5.444;2023-07-16T07:53:00;22.80;46.90
68719;DHT22;55696;52.138;5.444;2023-07-16T07:55:27;23.00;46.80
68719;DHT22;55696;52.138;5.444;2023-07-16T07:57:53;23.10;46.50
68719;DHT22;55696;52.138;5.444;2023-07-16T08:00:20;23.10;46.30
68719;DHT22;55696;52.138;5.444;2023-07-16T08:02:48;23.10;46.50
68719;DHT22;55696;52.138;5.444;2023-07-16T08:05:14;22.80;46.20
68719;DHT22;55696;52.138;5.444;2023-07-16T08:07:41;23.00;46.40
68719;DHT22;55696;52.138;5.444;2023-07-16T08:10:08;23.00;46.50
68719;DHT22;55696;52.138;5.444;2023-07-16T08:12:35;22.90;46.50
68719;DHT22;55696;52.138;5.444;2023-07-16T08:15:03;22.80;46.80
68719;DHT22;55696;52.138;5.444;2023-07-16T08:17:30;23.00;47.00
68719;DHT22;55696;52.138;5.444;2023-07-16T08:19:58;23.20;47.00
68719;DHT22;55696;52.138;5.444;2023-07-16T08:22:24;23.40;46.50
68719;DHT22;55696;52.138;5.444;2023-07-16T08:24:51;23.40;46.10
68719;DHT22;55696;52.138;5.444;2023-07-16T08:27:18;23.80;46.40
68719;DHT22;55696;52.138;5.444;2023-07-16T08:29:46;23.40;46.20
68719;DHT22;55696;52.138;5.444;2023-07-16T08:32:12;23.30;46.00
68719;DHT22;55696;52.138;5.444;2023-07-16T08:34:39;23.50;47.10
68719;DHT22;55696;52.138;5.444;2023-07-16T08:37:06;22.90;45.80
68719;DHT22;55696;52.138;5.444;2023-07-16T08:39:33;23.20;46.00
68719;DHT22;55696;52.138;5.444;2023-07-16T08:42:01;23.40;46.10
68719;DHT22;55696;52.138;5.444;2023-07-16T08:44:29;23.40;46.00
68719;DHT22;55696;52.138;5.444;2023-07-16T08:46:56;23.30;46.20
68719;DHT22;55696;52.138;5.444;2023-07-16T08:49:25;23.40;46.20
68719;DHT22;55696;52.138;5.444;2023-07-16T08:51:56;23.20;46.10
68719;DHT22;55696;52.138;5.444;2023-07-16T08:54:23;23.10;46.10
68719;DHT22;55696;52.138;5.444;2023-07-16T08:56:52;23.20;46.60
68719;DHT22;55696;52.138;5.444;2023-07-16T08:59:20;23.20;46.80
68719;DHT22;55696;52.138;5.444;2023-07-16T09:01:48;23.30;46.80
68719;DHT22;55696;52.138;5.444;2023-07-16T09:04:16;23.10;46.60
68719;DHT22;55696;52.138;5.444;2023-07-16T09:06:43;23.00;46.80
68719;DHT22;55696;52.138;5.444;2023-07-16T09:09:23;23.20;47.20
68719;DHT22;55696;52.138;5.444;2023-07-16T09:11:51;23.20;47.20
68719;DHT22;55696;52.138;5.444;2023-07-16T09:14:21;23.50;47.10
68719;DHT22;55696;52.138;5.444;2023-07-16T09:16:51;23.80;46.60
68719;DHT22;55696;52.138;5.444;2023-07-16T09:19:18;24.00;46.20
68719;DHT22;55696;52.138;5.444;2023-07-16T09:21:47;24.10;45.40
68719;DHT22;55696;52.138;5.444;2023-07-16T09:24:14;24.20;44.90
68719;DHT22;55696;52.138;5.444;2023-07-16T09:26:51;24.40;45.20
68719;DHT22;55696;52.138;5.444;2023-07-16T09:29:18;24.00;45.20
68719;DHT22;55696;52.138;5.444;2023-07-16T09:31:59;23.80;45.20
68719;DHT22;55696;52.138;5.444;2023-07-16T09:34:28;23.90;45.60
68719;DHT22;55696;52.138;5.444;2023-07-16T09:36:59;24.40;45.60
68719;DHT22;55696;52.138;5.444;2023-07-16T09:39:27;24.10;45.20
68719;DHT22;55696;52.138;5.444;2023-07-16T09:41:54;24.10;44.90
68719;DHT22;55696;52.138;5.444;2023-07-16T09:44:24;24.20;45.00
68719;DHT22;55696;52.138;5.444;2023-07-16T09:46:51;24.30;44.60
68719;DHT22;55696;52.138;5.444;2023-07-16T09:49:18;24.30;44.30
68719;DHT22;55696;52.138;5.444;2023-07-16T09:51:45;24.30;44.20
68719;DHT22;55696;52.138;5.444;2023-07-16T09:54:14;24.20;44.20
68719;DHT22;55696;52.138;5.444;2023-07-16T09:56:46;24.10;44.30
68719;DHT22;55696;52.138;5.444;2023-07-16T09:59:16;24.20;44.40
68719;DHT22;55696;52.138;5.444;2023-07-16T10:01:43;24.30;44.40
68719;DHT22;55696;52.138;5.444;2023-07-16T10:04:20;24.30;44.30
68719;DHT22;55696;52.138;5.444;2023-07-16T10:06:58;24.30;44.40
68719;DHT22;55696;52.138;5.444;2023-07-16T10:12:13;24.30;44.70
68719;DHT22;55696;52.138;5.444;2023-07-16T10:14:43;24.40;44.80
68719;DHT22;55696;52.138;5.444;2023-07-16T10:17:18;24.40;44.80
68719;DHT22;55696;52.138;5.444;2023-07-16T10:20:06;24.40;44.60
68719;DHT22;55696;52.138;5.444;2023-07-16T10:22:46;24.60;44.70
68719;DHT22;55696;52.138;5.444;2023-07-16T10:27:47;25.20;43.80
68719;DHT22;55696;52.138;5.444;2023-07-16T10:30:15;25.20;43.10
68719;DHT22;55696;52.138;5.444;2023-07-16T10:32:42;24.90;43.00
68719;DHT22;55696;52.138;5.444;2023-07-16T10:35:10;24.70;43.10
68719;DHT22;55696;52.138;5.444;2023-07-16T10:37:38;24.60;43.80
68719;DHT22;55696;52.138;5.444;2023-07-16T10:40:09;24.40;44.10
68719;DHT22;55696;52.138;5.444;2023-07-16T10:42:36;24.30;44.50
68719;DHT22;55696;52.138;5.444;2023-07-16T10:45:04;24.10;44.90
68719;DHT22;55696;52.138;5.444;2023-07-16T10:47:33;24.20;45.10
68719;DHT22;55696;52.138;5.444;2023-07-16T10:50:02;24.40;45.10
68719;DHT22;55696;52.138;5.444;2023-07-16T10:52:29;24.60;45.60
68719;DHT22;55696;52.138;5.444;2023-07-16T10:54:56;24.80;44.10
68719;DHT22;55696;52.138;5.444;2023-07-16T10:57:25;25.00;43.50
68719;DHT22;55696;52.138;5.444;2023-07-16T10:59:53;25.10;43.40
68719;DHT22;55696;52.138;5.444;2023-07-16T11:02:22;25.20;43.20
68719;DHT22;55696;52.138;5.444;2023-07-16T11:04:50;25.20;43.20
68719;DHT22;55696;52.138;5.444;2023-07-16T11:07:20;25.20;43.00
68719;DHT22;55696;52.138;5.444;2023-07-16T11:09:49;25.20;42.90
68719;DHT22;55696;52.138;5.444;2023-07-16T11:12:19;25.10;42.80
68719;DHT22;55696;52.138;5.444;2023-07-16T11:14:56;25.10;43.00
68719;DHT22;55696;52.138;5.444;2023-07-16T11:17:24;25.00;43.30
68719;DHT22;55696;52.138;5.444;2023-07-16T11:19:54;25.10;43.70
68719;DHT22;55696;52.138;5.444;2023-07-16T11:22:25;25.20;43.70
68719;DHT22;55696;52.138;5.444;2023-07-16T11:24:53;25.30;43.60
68719;DHT22;55696;52.138;5.444;2023-07-16T11:27:29;25.20;43.60
68719;DHT22;55696;52.138;5.444;2023-07-16T11:29:58;25.20;43.80
68719;DHT22;55696;52.138;5.444;2023-07-16T11:32:33;25.10;43.90
68719;DHT22;55696;52.138;5.444;2023-07-16T11:35:05;25.20;43.80
68719;DHT22;55696;52.138;5.444;2023-07-16T11:37:34;25.00;43.60
68719;DHT22;55696;52.138;5.444;2023-07-16T11:40:04;25.00;43.30
68719;DHT22;55696;52.138;5.444;2023-07-16T11:42:36;24.90;43.60
68719;DHT22;55696;52.138;5.444;2023-07-16T11:45:04;24.90;44.00
68719;DHT22;55696;52.138;5.444;2023-07-16T11:47:31;24.90;44.20
68719;DHT22;55696;52.138;5.444;2023-07-16T11:49:58;25.10;43.90
68719;DHT22;55696;52.138;5.444;2023-07-16T11:52:26;25.20;43.30
68719;DHT22;55696;52.138;5.444;2023-07-16T11:54:57;25.30;42.80
68719;DHT22;55696;52.138;5.444;2023-07-16T11:57:27;25.30;42.50
68719;DHT22;55696;52.138;5.444;2023-07-16T11:59:54;25.30;42.50
68719;DHT22;55696;52.138;5.444;2023-07-16T12:02:21;25.50;42.20
68719;DHT22;55696;52.138;5.444;2023-07-16T12:04:48;25.60;41.10
68719;DHT22;55696;52.138;5.444;2023-07-16T12:07:15;25.70;40.50
68719;DHT22;55696;52.138;5.444;2023-07-16T12:09:42;25.80;40.50
68719;DHT22;55696;52.138;5.444;2023-07-16T12:12:09;25.80;40.30
68719;DHT22;55696;52.138;5.444;2023-07-16T12:14:36;25.90;40.30
68719;DHT22;55696;52.138;5.444;2023-07-16T12:17:03;26.00;40.20
68719;DHT22;55696;52.138;5.444;2023-07-16T12:19:30;26.20;40.00
68719;DHT22;55696;52.138;5.444;2023-07-16T12:21:58;26.40;40.00
68719;DHT22;55696;52.138;5.444;2023-07-16T12:24:25;26.40;39.90
68719;DHT22;55696;52.138;5.444;2023-07-16T12:26:52;26.80;39.80
68719;DHT22;55696;52.138;5.444;2023-07-16T12:29:19;26.00;39.20
68719;DHT22;55696;52.138;5.444;2023-07-16T12:31:46;26.70;38.90
68719;DHT22;55696;52.138;5.444;2023-07-16T12:34:13;26.50;39.20
68719;DHT22;55696;52.138;5.444;2023-07-16T12:36:39;26.20;39.70
68719;DHT22;55696;52.138;5.444;2023-07-16T12:39:06;26.30;40.40
68719;DHT22;55696;52.138;5.444;2023-07-16T12:41:33;26.30;39.40
68719;DHT22;55696;52.138;5.444;2023-07-16T12:44:00;26.10;39.30
68719;DHT22;55696;52.138;5.444;2023-07-16T12:46:27;26.10;40.10
68719;DHT22;55696;52.138;5.444;2023-07-16T12:48:54;26.40;40.10
68719;DHT22;55696;52.138;5.444;2023-07-16T12:51:20;26.70;39.60
68719;DHT22;55696;52.138;5.444;2023-07-16T12:53:48;27.20;40.30
68719;DHT22;55696;52.138;5.444;2023-07-16T12:56:14;27.60;38.00
68719;DHT22;55696;52.138;5.444;2023-07-16T12:58:42;27.80;36.70
68719;DHT22;55696;52.138;5.444;2023-07-16T13:01:09;27.80;36.10
68719;DHT22;55696;52.138;5.444;2023-07-16T13:03:35;27.80;36.40
68719;DHT22;55696;52.138;5.444;2023-07-16T13:06:02;27.80;37.10
68719;DHT22;55696;52.138;5.444;2023-07-16T13:08:30;28.10;36.80
68719;DHT22;55696;52.138;5.444;2023-07-16T13:10:57;28.30;37.20
68719;DHT22;55696;52.138;5.444;2023-07-16T13:13:24;28.50;36.40
68719;DHT22;55696;52.138;5.444;2023-07-16T13:15:51;28.50;35.00
68719;DHT22;55696;52.138;5.444;2023-07-16T13:18:17;28.40;34.80
68719;DHT22;55696;52.138;5.444;2023-07-16T13:20:45;27.90;34.90
68719;DHT22;55696;52.138;5.444;2023-07-16T13:23:13;27.60;35.80
68719;DHT22;55696;52.138;5.444;2023-07-16T13:25:40;27.50;36.90
68719;DHT22;55696;52.138;5.444;2023-07-16T13:28:07;27.80;36.50
68719;DHT22;55696;52.138;5.444;2023-07-16T13:30:33;28.00;35.90
68719;DHT22;55696;52.138;5.444;2023-07-16T13:33:00;27.90;35.20
68719;DHT22;55696;52.138;5.444;2023-07-16T13:35:28;27.90;35.50
68719;DHT22;55696;52.138;5.444;2023-07-16T13:37:54;28.30;35.30
68719;DHT22;55696;52.138;5.444;2023-07-16T13:40:21;28.50;35.00
68719;DHT22;55696;52.138;5.444;2023-07-16T13:42:48;28.60;34.90
68719;DHT22;55696;52.138;5.444;2023-07-16T13:45:15;28.60;34.80
68719;DHT22;55696;52.138;5.444;2023-07-16T13:47:42;28.80;34.80
68719;DHT22;55696;52.138;5.444;2023-07-16T13:50:09;28.80;34.60
68719;DHT22;55696;52.138;5.444;2023-07-16T13:52:36;28.90;34.20
68719;DHT22;55696;52.138;5.444;2023-07-16T13:55:04;28.70;34.10
68719;DHT22;55696;52.138;5.444;2023-07-16T13:57:31;28.80;34.60
68719;DHT22;55696;52.138;5.444;2023-07-16T13:59:58;28.80;34.30
68719;DHT22;55696;52.138;5.444;2023-07-16T14:02:25;28.80;33.90
68719;DHT22;55696;52.138;5.444;2023-07-16T14:04:52;28.80;33.50
68719;DHT22;55696;52.138;5.444;2023-07-16T14:07:20;28.70;33.80
68719;DHT22;55696;52.138;5.444;2023-07-16T14:09:47;28.60;34.30
68719;DHT22;55696;52.138;5.444;2023-07-16T14:12:14;28.90;34.50
68719;DHT22;55696;52.138;5.444;2023-07-16T14:14:40;29.20;34.00
68719;DHT22;55696;52.138;5.444;2023-07-16T14:17:07;29.40;33.80
68719;DHT22;55696;52.138;5.444;2023-07-16T14:19:35;29.70;33.20
68719;DHT22;55696;52.138;5.444;2023-07-16T14:22:02;30.10;33.00
68719;DHT22;55696;52.138;5.444;2023-07-16T14:24:29;30.10;32.40
68719;DHT22;55696;52.138;5.444;2023-07-16T14:26:58;29.80;32.00
68719;DHT22;55696;52.138;5.444;2023-07-16T14:29:26;29.40;33.00
68719;DHT22;55696;52.138;5.444;2023-07-16T14:31:55;28.70;32.30
68719;DHT22;55696;52.138;5.444;2023-07-16T14:34:21;28.50;33.50
68719;DHT22;55696;52.138;5.444;2023-07-16T14:36:48;28.20;33.90
68719;DHT22;55696;52.138;5.444;2023-07-16T14:39:15;28.20;34.50
68719;DHT22;55696;52.138;5.444;2023-07-16T14:41:42;28.50;34.60
68719;DHT22;55696;52.138;5.444;2023-07-16T14:44:09;28.60;34.80
68719;DHT22;55696;52.138;5.444;2023-07-16T14:46:36;28.90;34.30
68719;DHT22;55696;52.138;5.444;2023-07-16T14:49:04;28.90;33.70
68719;DHT22;55696;52.138;5.444;2023-07-16T14:51:31;28.80;33.30
68719;DHT22;55696;52.138;5.444;2023-07-16T14:53:58;28.80;33.30
68719;DHT22;55696;52.138;5.444;2023-07-16T14:56:25;28.70;33.40
68719;DHT22;55696;52.138;5.444;2023-07-16T14:58:52;28.70;33.70
68719;DHT22;55696;52.138;5.444;2023-07-16T15:01:19;28.90;33.90
68719;DHT22;55696;52.138;5.444;2023-07-16T15:03:46;28.90;33.70
68719;DHT22;55696;52.138;5.444;2023-07-16T15:06:13;28.60;33.60
68719;DHT22;55696;52.138;5.444;2023-07-16T15:08:41;28.50;33.90
68719;DHT22;55696;52.138;5.444;2023-07-16T15:11:08;28.30;33.90
68719;DHT22;55696;52.138;5.444;2023-07-16T15:13:35;28.00;34.30
68719;DHT22;55696;52.138;5.444;2023-07-16T15:16:02;27.90;34.30
68719;DHT22;55696;52.138;5.444;2023-07-16T15:18:30;27.70;34.40
68719;DHT22;55696;52.138;5.444;2023-07-16T15:20:58;27.60;34.60
68719;DHT22;55696;52.138;5.444;2023-07-16T15:23:26;27.40;34.80
68719;DHT22;55696;52.138;5.444;2023-07-16T15:25:54;27.30;35.20
68719;DHT22;55696;52.138;5.444;2023-07-16T15:28:21;27.20;35.20
68719;DHT22;55696;52.138;5.444;2023-07-16T15:30:49;27.20;35.50
68719;DHT22;55696;52.138;5.444;2023-07-16T15:33:16;27.00;35.70
68719;DHT22;55696;52.138;5.444;2023-07-16T15:35:43;27.00;37.00
68719;DHT22;55696;52.138;5.444;2023-07-16T15:38:09;27.00;36.10
68719;DHT22;55696;52.138;5.444;2023-07-16T15:40:36;27.00;36.10
68719;DHT22;55696;52.138;5.444;2023-07-16T15:43:03;27.20;36.00
68719;DHT22;55696;52.138;5.444;2023-07-16T15:45:30;27.80;35.30
68719;DHT22;55696;52.138;5.444;2023-07-16T15:47:57;28.20;34.30